Time;durP1;ratioP1;P1;durP2;ratioP2;P2;SDS_P1;SDS_P2;PMS_P1;PMS_P2;Temp;Humidity;BMP_temperature;BMP_pressure;BME280_temperature;BME280_humidity;BME280_pressure;Samples;Min_cycle;Max_cycle;Signal;HPM_P1;HPM_P2
2023/07/06 00:01:57;;;;;;;7.35;3.72;;;;;;;15.96;63.27;99735.19;5071896;28;20086;-80
2023/07/06 00:04:24;;;;;;;7.95;3.38;;;;;;;15.92;63.37;99731.06;5089410;28;20043;-81
2023/07/06 00:06:51;;;;;;;4.63;3.53;;;;;;;15.88;63.59;99736.59;5089958;28;20121;-80
2023/07/06 00:09:18;;;;;;;3.75;2.75;;;;;;;15.84;63.64;99742.25;5089945;28;20048;-81
2023/07/06 00:11:45;;;;;;;6.60;3.30;;;;;;;15.81;63.85;99745.19;5090163;28;20067;-80
2023/07/06 00:14:12;;;;;;;4.70;3.15;;;;;;;15.77;63.94;99737.47;5093323;28;20067;-80
2023/07/06 00:16:41;;;;;;;4.32;3.30;;;;;;;15.76;64.00;99745.53;5093022;28;20083;-80
2023/07/06 00:19:08;;;;;;;5.28;3.22;;;;;;;15.74;64.24;99743.00;5093520;28;20561;-81
2023/07/06 00:21:35;;;;;;;5.70;3.70;;;;;;;15.71;64.48;99748.56;5093421;28;20048;-81
2023/07/06 00:24:02;;;;;;;5.85;3.58;;;;;;;15.70;64.60;99746.84;5093084;28;20507;-80
2023/07/06 00:26:28;;;;;;;7.95;3.60;;;;;;;15.70;64.72;99748.69;5093304;28;20052;-81
2023/07/06 00:28:55;;;;;;;7.40;3.67;;;;;;;15.67;64.76;99755.09;5093264;28;20076;-81
2023/07/06 00:31:32;;;;;;;7.20;3.42;;;;;;;15.67;64.88;99751.56;5092966;28;20063;-80
2023/07/06 00:34:05;;;;;;;4.82;3.20;;;;;;;15.64;65.40;99760.63;5092694;28;20055;-80
2023/07/06 00:36:35;;;;;;;6.43;3.78;;;;;;;15.64;65.06;99756.16;5093672;28;20203;-80
2023/07/06 00:39:03;;;;;;;5.22;3.67;;;;;;;15.64;65.34;99760.63;5093275;28;20048;-80
2023/07/06 00:41:31;;;;;;;7.68;3.38;;;;;;;15.62;65.36;99757.22;5093047;28;20063;-81
2023/07/06 00:43:58;;;;;;;6.00;3.75;;;;;;;15.62;65.60;99762.53;5093021;28;20048;-80
2023/07/06 00:46:36;;;;;;;5.38;3.33;;;;;;;15.59;65.86;99760.16;5074800;28;20131;-80
2023/07/06 00:49:05;;;;;;;5.05;3.60;;;;;;;15.61;65.52;99758.19;5092942;28;20151;-81
2023/07/06 00:51:37;;;;;;;5.90;3.42;;;;;;;15.59;65.71;99760.97;5092641;28;20135;-80
2023/07/06 00:54:12;;;;;;;4.53;3.78;;;;;;;15.58;66.36;99763.75;5092825;28;20535;-80
2023/07/06 00:56:42;;;;;;;4.60;3.30;;;;;;;15.58;66.17;99769.91;5092176;28;20551;-81
2023/07/06 00:59:13;;;;;;;5.47;3.72;;;;;;;15.58;66.32;99763.75;5092411;28;20052;-80
2023/07/06 01:01:43;;;;;;;5.75;3.85;;;;;;;15.58;66.47;99767.25;5074883;28;20093;-81
2023/07/06 01:04:13;;;;;;;5.22;3.95;;;;;;;15.58;66.63;99761.94;5092320;28;20530;-80
2023/07/06 01:06:47;;;;;;;6.22;3.53;;;;;;;15.56;66.92;99763.88;5092126;28;20047;-80
2023/07/06 01:09:20;;;;;;;5.05;3.90;;;;;;;15.57;66.78;99762.91;5092837;28;20052;-80
2023/07/06 01:11:47;;;;;;;5.13;4.35;;;;;;;15.60;66.66;99761.81;5092146;28;20044;-80
2023/07/06 01:14:14;;;;;;;5.53;4.05;;;;;;;15.58;66.64;99756.63;5092599;28;20117;-80
2023/07/06 01:17:01;;;;;;;6.80;4.75;;;;;;;15.56;67.29;99763.88;5091943;28;20109;-80
2023/07/06 01:19:43;;;;;;;5.65;3.90;;;;;;;15.57;67.00;99756.75;5074535;28;20056;-80
2023/07/06 01:22:29;;;;;;;9.82;4.78;;;;;;;15.52;67.38;99762.44;5074467;28;20131;-80
2023/07/06 01:25:19;;;;;;;5.72;4.78;;;;;;;15.49;67.44;99763.53;5090846;28;20052;-80
2023/07/06 01:28:15;;;;;;;5.70;4.68;;;;;;;15.47;67.36;99773.38;5091839;28;20056;-80
2023/07/06 01:31:24;;;;;;;8.18;5.03;;;;;;;15.44;67.63;99773.63;5092241;28;20052;-80
2023/07/06 01:34:01;;;;;;;6.45;4.82;;;;;;;15.44;67.40;99778.09;5071689;28;20135;-81
2023/07/06 01:39:11;;;;;;;7.15;5.25;;;;;;;15.40;67.79;99784.59;5009779;28;20072;-80
2023/07/06 01:41:40;;;;;;;8.07;5.40;;;;;;;15.39;67.32;99780.25;5010747;28;20046;-79
2023/07/06 01:44:10;;;;;;;7.25;5.00;;;;;;;15.36;67.62;99774.22;5011355;28;20081;-80
2023/07/06 01:46:37;;;;;;;6.85;5.00;;;;;;;15.36;67.59;99774.22;5030849;28;20050;-80
2023/07/06 01:49:05;;;;;;;6.53;5.30;;;;;;;15.36;67.64;99782.19;5030532;28;20053;-79
2023/07/06 01:51:42;;;;;;;7.97;5.35;;;;;;;15.34;67.99;99785.91;5030948;28;20046;-79
2023/07/06 01:54:17;;;;;;;7.68;5.57;;;;;;;15.33;68.18;99785.06;5030038;28;20053;-80
2023/07/06 01:57:17;;;;;;;8.10;5.68;;;;;;;15.30;68.45;99784.47;5030456;28;20059;-79
2023/07/06 01:59:49;;;;;;;6.72;5.43;;;;;;;15.34;67.40;99783.25;5030949;28;20048;-79
2023/07/06 02:02:16;;;;;;;5.53;4.82;;;;;;;15.33;67.68;99781.56;5030884;28;20427;-80
2023/07/06 02:04:43;;;;;;;8.00;5.88;;;;;;;15.31;67.74;99780.84;5012492;28;20123;-80
2023/07/06 02:07:11;;;;;;;6.75;5.47;;;;;;;15.28;67.87;99783.75;5030466;28;20053;-80
2023/07/06 02:09:43;;;;;;;7.93;5.80;;;;;;;15.24;68.25;99780.47;5012898;28;20128;-79
2023/07/06 02:12:12;;;;;;;6.43;5.47;;;;;;;15.24;67.85;99786.63;5030355;28;20070;-80
2023/07/06 02:14:40;;;;;;;7.80;5.43;;;;;;;15.23;67.94;99786.72;5030191;28;20053;-80
2023/07/06 02:17:07;;;;;;;7.10;5.93;;;;;;;15.23;67.99;99784.94;5029892;28;20061;-79
2023/07/06 02:19:35;;;;;;;8.05;5.82;;;;;;;15.21;67.96;99773.59;5030641;28;20519;-80
2023/07/06 02:22:05;;;;;;;9.25;6.03;;;;;;;15.22;67.99;99780.56;5030098;28;20053;-79
2023/07/06 02:24:32;;;;;;;8.25;5.90;;;;;;;15.21;67.93;99781.53;5030123;28;20064;-79
2023/07/06 02:26:58;;;;;;;8.65;6.15;;;;;;;15.22;68.02;99785.06;5029843;28;20469;-79
2023/07/06 02:29:25;;;;;;;8.35;6.10;;;;;;;15.20;68.13;99787.81;5030149;28;20084;-79
2023/07/06 02:31:51;;;;;;;10.85;6.25;;;;;;;15.20;68.08;99781.66;5029751;28;20064;-80
2023/07/06 02:34:24;;;;;;;7.50;6.25;;;;;;;15.20;68.12;99787.81;5029763;28;20106;-79
2023/07/06 02:36:51;;;;;;;;;;;;;;;15.19;68.30;99787.94;5029852;28;20525;-79
2023/07/06 02:39:20;;;;;;;6.65;5.22;;;;;;;15.23;67.57;99784.94;5030361;28;19929;-79
2023/07/06 02:41:46;;;;;;;8.35;6.15;;;;;;;15.21;67.93;99786.00;5030002;28;20496;-79
2023/07/06 02:44:13;;;;;;;8.60;7.05;;;;;;;15.18;67.99;99773.81;5030024;28;20064;-79
2023/07/06 02:46:39;;;;;;;7.32;6.25;;;;;;;15.16;68.21;99781.06;5029177;28;20045;-79
2023/07/06 02:49:06;;;;;;;7.00;6.20;;;;;;;15.16;68.59;99780.19;5029511;28;20495;-79
2023/07/06 02:51:34;;;;;;;7.15;5.68;;;;;;;15.14;68.51;99780.31;5029787;28;20059;-80
2023/07/06 02:54:00;;;;;;;8.63;6.80;;;;;;;15.15;68.53;99778.50;5029806;28;20499;-80
2023/07/06 02:56:26;;;;;;;7.90;6.88;;;;;;;15.15;68.65;99789.13;5029641;28;20076;-79
2023/07/06 02:58:53;;;;;;;8.90;6.60;;;;;;;15.16;68.54;99786.34;5011873;28;20128;-79
2023/07/06 03:01:20;;;;;;;7.95;6.15;;;;;;;15.17;68.67;99785.38;5029299;28;20053;-79
2023/07/06 03:03:46;;;;;;;12.85;7.57;;;;;;;15.18;68.68;99784.41;5029874;28;20057;-79
2023/07/06 03:06:13;;;;;;;10.77;6.68;;;;;;;15.20;68.70;99794.91;5029237;28;20057;-79
2023/07/06 03:08:39;;;;;;;8.52;6.97;;;;;;;15.20;68.55;99792.25;5029767;28;20234;-79
2023/07/06 03:11:07;;;;;;;11.40;7.75;;;;;;;15.21;68.78;99797.44;5029430;28;20049;-79
2023/07/06 03:13:33;;;;;;;9.18;7.38;;;;;;;15.22;68.89;99793.00;5012185;28;20046;-79
2023/07/06 03:16:00;;;;;;;10.45;7.50;;;;;;;15.23;68.94;99792.91;5029127;28;20164;-79
2023/07/06 03:18:27;;;;;;;11.10;7.78;;;;;;;15.25;69.13;99790.09;5028241;28;20456;-79
2023/07/06 03:20:54;;;;;;;8.98;7.60;;;;;;;15.26;68.86;99793.59;5029710;28;20087;-79
2023/07/06 03:23:21;;;;;;;8.95;7.05;;;;;;;15.27;69.13;99790.84;5029657;28;20056;-79
2023/07/06 03:25:51;;;;;;;11.93;7.68;;;;;;;15.28;69.62;99802.31;5029645;28;20053;-79
2023/07/06 03:28:19;;;;;;;10.93;8.43;;;;;;;15.31;69.12;99807.34;5029533;28;20088;-79
2023/07/06 03:30:52;;;;;;;12.30;7.95;;;;;;;15.32;69.08;99809.91;5029087;28;20075;-79
2023/07/06 03:33:19;;;;;;;11.63;8.02;;;;;;;15.33;69.11;99808.09;5029814;28;20068;-79
2023/07/06 03:35:46;;;;;;;13.43;8.13;;;;;;;15.34;69.28;99813.28;5029189;28;20049;-79
2023/07/06 03:38:12;;;;;;;9.32;8.00;;;;;;;15.35;69.28;99811.47;5029470;28;20115;-79
2023/07/06 03:40:38;;;;;;;13.98;9.18;;;;;;;15.37;69.54;99807.72;5029563;28;20046;-79
2023/07/06 03:43:06;;;;;;;12.10;8.80;;;;;;;15.39;69.43;99812.91;5029075;28;20059;-79
2023/07/06 03:45:32;;;;;;;14.52;8.18;;;;;;;15.42;69.68;99806.53;5028980;28;20057;-78
2023/07/06 03:47:59;;;;;;;11.20;8.52;;;;;;;15.45;69.44;99803.66;5014004;28;20059;-79
2023/07/06 03:50:26;;;;;;;14.27;8.70;;;;;;;15.47;69.32;99805.22;5033650;28;20523;-79
2023/07/06 03:52:52;;;;;;;15.52;8.05;;;;;;;15.50;69.41;99799.69;5032779;28;20522;-80
2023/07/06 03:55:24;;;;;;;13.65;8.43;;;;;;;15.50;69.46;99801.47;5032871;28;20056;-79
2023/07/06 03:57:50;;;;;;;10.82;7.75;;;;;;;15.54;69.30;99810.03;5032819;28;20049;-80
2023/07/06 04:00:22;;;;;;;12.63;8.15;;;;;;;15.55;69.17;99811.75;5033007;28;20053;-79
2023/07/06 04:02:51;;;;;;;14.00;8.57;;;;;;;15.56;69.23;99811.63;5032402;28;20484;-80
2023/07/06 04:05:32;;;;;;;14.07;8.98;;;;;;;15.56;69.44;99813.44;5032616;28;20478;-79
2023/07/06 04:08:03;;;;;;;9.90;8.18;;;;;;;15.58;69.16;99812.34;5032853;28;20080;-80
2023/07/06 04:10:31;;;;;;;13.77;8.45;;;;;;;15.59;69.01;99819.34;5032522;28;20045;-79
2023/07/06 04:12:58;;;;;;;12.52;8.30;;;;;;;15.60;69.04;99814.88;5032887;28;20056;-80
2023/07/06 04:15:25;;;;;;;10.90;8.38;;;;;;;15.60;69.19;99814.88;5031929;28;20492;-80
2023/07/06 04:17:52;;;;;;;12.55;8.73;;;;;;;15.60;69.09;99813.09;5032817;28;20068;-79
2023/07/06 04:20:27;;;;;;;11.40;8.15;;;;;;;15.57;69.47;99813.31;5015077;28;20049;-80
2023/07/06 04:22:56;;;;;;;11.07;8.60;;;;;;;15.61;69.32;99821.88;5032353;28;20053;-80
2023/07/06 04:25:28;;;;;;;11.32;7.93;;;;;;;15.63;69.32;99820.78;5032094;28;20399;-80
2023/07/06 04:27:56;;;;;;;;;;;;;;;15.64;69.44;99821.66;5032711;28;20133;-79
2023/07/06 04:30:23;;;;;;;10.63;7.90;;;;;;;15.71;68.77;99822.03;5032113;28;19928;-80
2023/07/06 04:32:50;;;;;;;13.73;8.90;;;;;;;15.71;69.03;99822.03;5032613;28;20061;-79
2023/07/06 04:35:21;;;;;;;14.75;8.98;;;;;;;15.70;69.21;99818.50;5031994;28;20099;-79
2023/07/06 04:37:50;;;;;;;15.35;8.70;;;;;;;15.72;69.22;99826.34;5014405;28;20151;-80
2023/07/06 04:40:21;;;;;;;11.75;8.70;;;;;;;15.73;69.40;99820.94;5032366;28;20373;-80
2023/07/06 04:42:50;;;;;;;12.75;8.55;;;;;;;15.75;69.27;99823.47;5031785;28;20060;-79
2023/07/06 04:45:18;;;;;;;13.35;8.48;;;;;;;15.77;69.35;99819.72;5014146;28;20443;-80
2023/07/06 04:47:45;;;;;;;13.63;9.73;;;;;;;15.80;69.22;99826.59;5031863;28;20052;-79
2023/07/06 04:50:17;;;;;;;17.15;8.00;;;;;;;15.82;69.21;99823.84;5032022;28;20049;-80
2023/07/06 04:52:45;;;;;;;12.70;7.88;;;;;;;15.84;69.08;99825.41;5032001;28;20052;-80
2023/07/06 04:55:13;;;;;;;17.02;9.10;;;;;;;15.86;69.15;99826.09;5031762;28;20050;-80
2023/07/06 04:57:39;;;;;;;16.67;8.32;;;;;;;15.88;69.29;99818.88;5031596;28;20058;-80
2023/07/06 05:00:13;;;;;;;13.38;8.20;;;;;;;15.90;69.12;99826.72;5030556;28;20042;-80
2023/07/06 05:02:42;;;;;;;13.68;9.00;;;;;;;15.90;68.88;99816.94;5014172;28;20458;-80
2023/07/06 05:05:12;;;;;;;19.63;9.02;;;;;;;15.91;68.68;99831.06;5031924;28;20088;-79
2023/07/06 05:07:41;;;;;;;11.60;8.57;;;;;;;15.91;68.75;99841.69;5031720;28;20439;-80
2023/07/06 05:10:08;;;;;;;11.18;7.32;;;;;;;15.92;68.79;99832.75;5031512;28;20037;-79
2023/07/06 05:12:35;;;;;;;10.95;8.02;;;;;;;15.92;68.88;99832.75;5031824;28;20049;-79
2023/07/06 05:15:02;;;;;;;15.73;8.50;;;;;;;15.94;69.11;99833.53;5031128;28;20060;-79
2023/07/06 05:17:29;;;;;;;15.57;7.80;;;;;;;15.96;69.07;99836.88;5031297;28;20063;-80
2023/07/06 05:19:55;;;;;;;9.98;7.03;;;;;;;15.99;69.32;99831.34;5031438;28;20085;-79
2023/07/06 05:22:23;;;;;;;15.02;7.57;;;;;;;16.03;69.68;99826.63;5031015;28;20061;-80
2023/07/06 05:24:50;;;;;;;12.05;7.03;;;;;;;16.10;69.74;99827.00;5031110;28;20057;-79
2023/07/06 05:27:18;;;;;;;9.70;6.78;;;;;;;16.16;69.71;99831.84;5011596;28;20053;-80
2023/07/06 05:29:44;;;;;;;17.60;7.20;;;;;;;16.23;69.51;99833.00;5011937;28;20046;-80
2023/07/06 05:32:11;;;;;;;14.70;6.82;;;;;;;16.32;69.20;99825.28;5030902;28;20057;-80
2023/07/06 05:34:37;;;;;;;12.95;6.68;;;;;;;16.39;69.26;99834.44;5031329;28;20443;-79
2023/07/06 05:37:04;;;;;;;11.48;6.47;;;;;;;16.46;69.00;99840.97;5030557;28;20523;-80
2023/07/06 05:39:30;;;;;;;10.45;6.00;;;;;;;16.53;68.89;99836.81;5013659;28;20056;-80
2023/07/06 05:41:57;;;;;;;11.10;5.68;;;;;;;16.60;68.57;99842.50;5030705;28;20050;-80
2023/07/06 05:44:23;;;;;;;9.55;6.03;;;;;;;16.67;68.47;99837.50;5031441;28;20064;-79
2023/07/06 05:46:50;;;;;;;11.20;6.47;;;;;;;16.72;68.01;99838.00;5012939;28;20073;-79
2023/07/06 05:49:16;;;;;;;11.90;6.50;;;;;;;16.78;68.00;99842.81;5031456;28;20049;-79
2023/07/06 05:51:43;;;;;;;9.35;5.93;;;;;;;16.84;67.71;99851.25;5030601;28;20049;-79
2023/07/06 05:54:09;;;;;;;9.48;6.15;;;;;;;16.88;68.11;99852.69;5029550;28;20549;-80
2023/07/06 05:56:37;;;;;;;9.20;5.40;;;;;;;16.92;67.73;99854.97;5029868;28;20054;-79
2023/07/06 05:59:04;;;;;;;10.40;6.68;;;;;;;16.97;67.55;99854.56;5031100;28;20500;-80
2023/07/06 06:01:32;;;;;;;10.18;5.72;;;;;;;17.01;67.34;99855.19;5030507;28;20045;-80
2023/07/06 06:04:01;;;;;;;8.55;5.97;;;;;;;17.03;67.24;99854.09;5012274;28;20053;-80
2023/07/06 06:06:27;;;;;;;9.27;6.15;;;;;;;17.07;67.06;99862.69;5030350;28;20064;-80
2023/07/06 06:08:54;;;;;;;13.13;6.40;;;;;;;17.09;66.99;99854.56;5012879;28;20056;-80
2023/07/06 06:11:21;;;;;;;8.13;5.60;;;;;;;17.11;66.82;99853.47;5012603;28;20069;-80
2023/07/06 06:13:49;;;;;;;14.02;6.22;;;;;;;17.12;66.38;99860.47;5030459;28;20368;-80
2023/07/06 06:16:16;;;;;;;14.48;6.50;;;;;;;17.14;66.64;99863.00;5013037;28;20084;-80
2023/07/06 06:18:44;;;;;;;18.90;6.30;;;;;;;17.13;66.42;99870.16;5029950;28;20464;-80
2023/07/06 06:21:10;;;;;;;10.65;5.68;;;;;;;17.15;66.96;99870.00;5030303;28;20053;-80
2023/07/06 06:23:37;;;;;;;11.55;5.38;;;;;;;17.15;66.87;99872.66;5012571;28;20063;-80
2023/07/06 06:26:03;;;;;;;8.23;5.57;;;;;;;17.18;67.11;99880.41;5029644;28;20401;-80
2023/07/06 06:28:30;;;;;;;13.45;6.28;;;;;;;17.22;67.26;99883.63;5030326;28;20049;-80
2023/07/06 06:30:56;;;;;;;9.07;5.60;;;;;;;17.27;67.40;99892.09;5030579;28;20045;-80
2023/07/06 06:33:22;;;;;;;11.98;5.88;;;;;;;17.32;67.11;99893.38;5030649;28;20414;-80
2023/07/06 06:35:50;;;;;;;10.98;5.50;;;;;;;17.39;66.90;99898.22;5012089;28;20169;-80
2023/07/06 06:38:17;;;;;;;14.00;5.28;;;;;;;17.45;66.45;99900.34;4999146;28;20049;-80
2023/07/06 06:40:44;;;;;;;11.45;5.38;;;;;;;17.51;66.88;99894.53;5010007;28;20049;-80
2023/07/06 06:43:10;;;;;;;10.13;5.03;;;;;;;17.57;66.55;99901.16;5010384;28;20508;-80
2023/07/06 06:45:39;;;;;;;7.30;4.35;;;;;;;17.63;66.59;99894.44;5010101;28;20046;-80
2023/07/06 06:48:06;;;;;;;10.52;4.82;;;;;;;17.70;66.42;99890.28;4992429;28;20564;-81
2023/07/06 06:50:32;;;;;;;11.48;4.78;;;;;;;17.78;66.48;99898.47;5009981;28;20060;-80
2023/07/06 06:52:59;;;;;;;10.48;4.90;;;;;;;17.84;66.25;99903.25;5010284;28;20089;-80
2023/07/06 06:55:25;;;;;;;12.98;4.78;;;;;;;17.90;66.04;99901.91;5009392;28;20080;-81
2023/07/06 06:57:52;;;;;;;8.85;4.78;;;;;;;17.97;66.08;99907.53;5010329;28;20256;-80
2023/07/06 07:00:19;;;;;;;8.02;4.35;;;;;;;18.03;65.99;99914.16;5009899;28;20100;-80
2023/07/06 07:02:45;;;;;;;9.43;4.40;;;;;;;18.08;65.98;99914.63;5010268;28;20100;-80
2023/07/06 07:05:15;;;;;;;9.25;4.50;;;;;;;18.14;65.61;99913.25;5009690;28;20045;-81
2023/07/06 07:07:41;;;;;;;9.65;4.50;;;;;;;18.19;65.48;99911.91;5009874;28;20057;-81
2023/07/06 07:10:10;;;;;;;9.32;4.22;;;;;;;18.23;65.44;99915.13;5009937;28;20053;-81
2023/07/06 07:12:42;;;;;;;11.00;4.50;;;;;;;18.28;64.91;99917.41;5009909;28;20560;-80
2023/07/06 07:15:10;;;;;;;8.20;4.40;;;;;;;18.34;64.99;99916.84;5009547;28;20643;-80
2023/07/06 07:17:38;;;;;;;6.85;4.03;;;;;;;18.40;65.02;99923.47;5009786;28;20060;-80
2023/07/06 07:20:05;;;;;;;8.93;4.28;;;;;;;18.46;64.92;99922.91;5010046;28;20085;-80
2023/07/06 07:22:33;;;;;;;8.90;4.22;;;;;;;18.54;65.23;99930.25;5011510;28;20128;-80
2023/07/06 07:24:59;;;;;;;8.60;4.00;;;;;;;18.57;65.13;99922.84;5013608;28;20481;-80
2023/07/06 07:27:28;;;;;;;6.43;3.70;;;;;;;18.66;64.89;99926.53;5013659;28;20508;-80
2023/07/06 07:29:54;;;;;;;9.57;4.53;;;;;;;18.74;64.60;99923.16;5013789;28;20057;-80
2023/07/06 07:32:21;;;;;;;11.45;3.97;;;;;;;18.83;64.95;99930.34;5013537;28;20050;-80
2023/07/06 07:34:50;;;;;;;7.75;4.22;;;;;;;18.94;64.33;99942.72;5013139;28;20058;-80
2023/07/06 07:39:47;;;;;;;8.75;3.75;;;;;;;19.11;63.93;99945.72;5059664;22;20064;-81
2023/07/06 07:42:13;;;;;;;9.50;4.15;;;;;;;19.18;64.05;99941.53;5072795;28;20105;-82
2023/07/06 07:44:47;;;;;;;9.70;3.92;;;;;;;19.24;63.20;99948.97;5056043;28;20062;-81
2023/07/06 07:47:18;;;;;;;9.10;4.05;;;;;;;19.33;63.41;99947.25;5073450;28;20413;-83
2023/07/06 07:49:46;;;;;;;10.20;4.32;;;;;;;19.40;63.53;99948.41;5073809;28;20049;-82
2023/07/06 07:52:14;;;;;;;12.80;4.25;;;;;;;19.49;62.94;99951.22;5073457;28;20052;-81
2023/07/06 07:54:42;;;;;;;11.82;4.55;;;;;;;19.54;63.14;99959.63;5053746;28;20040;-81
2023/07/06 07:57:10;;;;;;;9.55;3.90;;;;;;;19.61;63.10;99954.56;5053824;28;20049;-83
2023/07/06 07:59:36;;;;;;;9.27;4.30;;;;;;;19.68;63.11;99961.03;5072183;28;20045;-82
2023/07/06 08:02:03;;;;;;;9.10;3.97;;;;;;;19.76;63.23;99963.84;5073265;28;20483;-83
2023/07/06 08:04:30;;;;;;;12.68;4.20;;;;;;;19.86;62.92;99961.16;5073771;28;20044;-82
2023/07/06 08:06:56;;;;;;;12.18;4.25;;;;;;;19.95;62.48;99954.09;5073491;28;20163;-81
2023/07/06 08:09:23;;;;;;;8.93;4.53;;;;;;;20.04;62.47;99955.13;5071251;28;20040;-83
2023/07/06 08:11:50;;;;;;;11.57;4.72;;;;;;;20.13;62.16;99956.91;5072531;28;20048;-82
2023/07/06 08:14:41;;;;;;;10.80;4.82;;;;;;;20.18;61.43;99962.66;5070740;28;20447;-82
2023/07/06 08:17:10;;;;;;;11.83;4.87;;;;;;;20.33;62.11;99964.84;5072449;28;20098;-82
2023/07/06 08:19:37;;;;;;;12.00;4.10;;;;;;;20.44;61.82;99967.34;5072907;28;20291;-82
2023/07/06 08:22:24;;;;;;;11.20;4.53;;;;;;;20.54;61.48;99972.66;5060748;28;20041;-82
2023/07/06 08:24:52;;;;;;;10.95;4.57;;;;;;;20.61;60.76;99972.91;5054522;28;20070;-82
2023/07/06 08:27:19;;;;;;;10.40;4.75;;;;;;;20.66;60.66;99977.81;5072639;28;20094;-80
2023/07/06 08:29:48;;;;;;;10.52;4.30;;;;;;;20.68;60.36;99978.50;5072563;28;20043;-82
2023/07/06 08:32:19;;;;;;;11.32;5.03;;;;;;;20.68;60.55;99979.34;5072773;28;20083;-81
2023/07/06 08:34:47;;;;;;;9.27;4.60;;;;;;;20.70;60.27;99980.03;5072618;28;20057;-82
2023/07/06 08:37:18;;;;;;;12.48;4.70;;;;;;;20.72;60.10;99982.56;5055200;28;20078;-81
2023/07/06 08:39:45;;;;;;;13.60;4.22;;;;;;;20.73;60.00;99973.56;5073295;28;20163;-81
2023/07/06 08:42:15;;;;;;;11.00;3.88;;;;;;;20.72;59.29;99987.94;5073159;28;20056;-82
2023/07/06 08:44:55;;;;;;;8.40;4.18;;;;;;;20.71;59.19;99988.94;5073107;28;20063;-81
2023/07/06 08:47:26;;;;;;;10.23;4.50;;;;;;;20.76;60.08;99980.44;5071840;28;20089;-81
2023/07/06 08:49:54;;;;;;;10.33;4.50;;;;;;;20.80;60.11;99988.03;5072922;28;20393;-82
2023/07/06 08:52:21;;;;;;;10.07;4.28;;;;;;;20.86;60.06;99986.56;5073056;28;20056;-81
2023/07/06 08:54:51;;;;;;;11.13;3.95;;;;;;;20.90;59.68;99977.28;5072844;28;20079;-81
2023/07/06 08:57:23;;;;;;;11.85;4.05;;;;;;;20.98;60.55;99979.22;5072480;28;20048;-81
2023/07/06 08:59:51;;;;;;;7.80;3.80;;;;;;;21.11;60.75;99983.38;5072493;28;20044;-81
2023/07/06 09:02:26;;;;;;;10.60;3.97;;;;;;;21.20;59.33;99985.16;5072454;28;20060;-81
2023/07/06 09:04:56;;;;;;;9.38;4.07;;;;;;;21.35;59.00;99977.44;5072598;28;20060;-81
2023/07/06 09:07:39;;;;;;;8.15;3.28;;;;;;;21.45;57.79;99974.66;5072423;28;20048;-82
2023/07/06 09:10:15;;;;;;;9.80;4.07;;;;;;;21.59;58.79;99978.63;5072175;28;20053;-82
2023/07/06 09:12:57;;;;;;;12.43;3.63;;;;;;;21.74;59.20;99981.63;5072379;28;20098;-82
2023/07/06 09:15:29;;;;;;;7.93;3.88;;;;;;;21.84;57.69;99989.59;5054552;28;20496;-82
2023/07/06 09:18:03;;;;;;;8.75;3.65;;;;;;;21.94;58.04;99986.81;5072398;28;20045;-82
2023/07/06 09:20:32;;;;;;;9.07;3.95;;;;;;;22.02;56.83;99986.88;5072147;28;20127;-81
2023/07/06 09:23:01;;;;;;;8.43;3.40;;;;;;;22.07;56.34;99992.63;5072139;28;20074;-81
2023/07/06 09:25:37;;;;;;;8.10;3.45;;;;;;;22.10;55.47;99988.78;5054165;28;20488;-81
2023/07/06 09:28:07;;;;;;;9.57;2.83;;;;;;;22.11;55.95;99993.13;5072002;28;20131;-81
2023/07/06 09:30:38;;;;;;;9.00;3.00;;;;;;;22.13;55.49;99993.81;5071826;28;20084;-82
2023/07/06 09:33:24;;;;;;;5.82;2.83;;;;;;;22.09;54.76;99992.47;5071836;28;20139;-81
2023/07/06 09:35:53;;;;;;;7.15;3.08;;;;;;;22.16;55.29;99993.50;5071588;28;20408;-82
2023/07/06 09:38:20;;;;;;;5.63;2.72;;;;;;;22.20;55.68;99986.00;5071711;28;20048;-81
2023/07/06 09:40:47;;;;;;;9.80;3.30;;;;;;;22.24;55.70;99998.09;5071581;28;20044;-82
2023/07/06 09:43:21;;;;;;;7.28;3.10;;;;;;;22.29;54.90;99992.22;5071827;28;20082;-83
2023/07/06 09:45:49;;;;;;;9.15;3.42;;;;;;;22.34;55.03;99990.75;5070862;28;20056;-82
2023/07/06 09:48:32;;;;;;;9.13;3.08;;;;;;;22.34;54.18;99992.59;5071554;28;20056;-82
2023/07/06 09:51:31;;;;;;;7.40;3.63;;;;;;;22.35;52.43;99989.75;5071455;28;20132;-83
2023/07/06 09:54:06;;;;;;;6.13;2.75;;;;;;;22.35;52.98;99989.75;5071399;28;20114;-83
2023/07/06 09:56:33;;;;;;;6.35;2.85;;;;;;;22.36;53.47;99995.97;5071128;28;20063;-82
2023/07/06 09:59:00;;;;;;;10.18;2.97;;;;;;;22.31;53.90;99992.94;5053499;28;20052;-81
2023/07/06 10:01:36;;;;;;;8.88;2.97;;;;;;;22.27;53.99;99995.06;5071144;28;20094;-82
2023/07/06 10:04:24;;;;;;;7.78;3.17;;;;;;;22.31;54.53;99990.25;5071579;28;20063;-81
2023/07/06 10:07:10;;;;;;;8.45;2.60;;;;;;;22.45;53.51;99986.97;5070914;28;20048;-82
2023/07/06 10:09:49;;;;;;;8.90;2.58;;;;;;;22.61;53.62;99999.63;5071185;28;20075;-83
2023/07/06 10:12:29;;;;;;;6.75;2.55;;;;;;;22.77;54.35;99995.34;5070797;28;20040;-82
2023/07/06 10:14:56;;;;;;;6.05;2.55;;;;;;;22.88;54.19;100002.28;5070366;28;20163;-82
2023/07/06 10:17:38;;;;;;;5.05;2.45;;;;;;;22.93;53.20;99994.56;5070784;28;20056;-81
2023/07/06 10:20:34;;;;;;;4.65;2.47;;;;;;;23.06;53.46;99995.94;5071198;28;20044;-82
2023/07/06 10:23:13;;;;;;;3.70;2.22;;;;;;;23.23;51.80;99994.97;5047928;28;20080;-80
2023/07/06 10:25:56;;;;;;;7.78;2.45;;;;;;;23.34;50.95;99998.38;5053190;28;20048;-82
2023/07/06 10:28:33;;;;;;;3.60;2.13;;;;;;;23.44;50.99;99996.41;5053305;28;20535;-81
2023/07/06 10:31:03;;;;;;;5.38;2.30;;;;;;;23.53;51.44;99994.53;5070870;28;20075;-81
2023/07/06 10:33:41;;;;;;;5.22;2.05;;;;;;;23.50;50.21;99995.72;5052628;28;20080;-81
2023/07/06 10:36:12;;;;;;;3.67;2.10;;;;;;;23.50;50.58;100000.25;5052785;28;20049;-80
2023/07/06 10:38:39;;;;;;;7.30;2.00;;;;;;;23.47;50.88;99998.72;5070700;28;20085;-82
2023/07/06 10:41:09;;;;;;;6.05;2.33;;;;;;;23.41;49.89;100005.59;5070829;28;20052;-81
2023/07/06 10:43:38;;;;;;;5.43;2.10;;;;;;;23.40;50.49;100005.78;5070485;28;20053;-79
2023/07/06 10:46:35;;;;;;;7.72;2.50;;;;;;;23.30;50.25;100009.41;5070568;28;20052;-81
2023/07/06 10:49:16;;;;;;;4.32;2.08;;;;;;;23.31;51.06;100007.56;5070784;28;20053;-81
2023/07/06 10:51:51;;;;;;;7.90;2.72;;;;;;;23.41;51.12;99999.41;5070648;28;20052;-80
2023/07/06 10:54:24;;;;;;;5.45;2.35;;;;;;;23.67;52.07;100004.63;5070329;28;20052;-80
2023/07/06 10:57:11;;;;;;;8.63;2.42;;;;;;;24.10;52.63;100002.78;5069306;28;20135;-79
2023/07/06 10:59:41;;;;;;;5.97;2.53;;;;;;;24.66;53.13;100010.88;5070546;28;20477;-79
2023/07/06 11:02:24;;;;;;;7.53;2.97;;;;;;;25.23;52.34;100003.56;5070560;28;20128;-80
2023/07/06 11:05:17;;;;;;;5.28;2.60;;;;;;;25.85;51.34;100006.34;5056434;28;20067;-80
2023/07/06 11:07:46;;;;;;;4.32;2.13;;;;;;;26.38;49.95;100005.50;5070450;28;20516;-80
2023/07/06 11:10:13;;;;;;;4.22;1.80;;;;;;;26.85;49.71;100007.97;5070233;28;20402;-82
2023/07/06 11:13:01;;;;;;;4.40;2.03;;;;;;;27.24;48.47;100005.94;5070218;28;20056;-80
2023/07/06 11:15:48;;;;;;;7.00;2.83;;;;;;;27.66;47.60;100008.06;5050144;28;20053;-80
2023/07/06 11:18:24;;;;;;;5.78;1.90;;;;;;;28.03;44.85;100007.94;5050447;28;20049;-80
2023/07/06 11:20:53;;;;;;;3.85;1.77;;;;;;;28.29;45.51;100014.59;5032470;28;20563;-80
2023/07/06 11:23:42;;;;;;;4.45;1.90;;;;;;;28.30;43.50;100016.25;5061971;28;20053;-80
2023/07/06 11:26:34;;;;;;;4.10;2.10;;;;;;;28.18;42.98;100021.38;5069861;28;20067;-80
2023/07/06 11:29:08;;;;;;;6.63;2.30;;;;;;;27.96;41.61;100016.00;5062199;28;20151;-79
2023/07/06 11:31:35;;;;;;;4.60;2.05;;;;;;;27.63;42.26;100017.41;5070195;28;20070;-79
2023/07/06 11:34:43;;;;;;;7.15;2.20;;;;;;;27.16;43.20;100020.44;5069754;28;20044;-79
2023/07/06 11:37:21;;;;;;;4.32;2.28;;;;;;;26.87;43.40;100024.81;5056801;28;20044;-82
2023/07/06 11:39:50;;;;;;;4.43;1.70;;;;;;;26.57;43.38;100027.53;5070449;28;20110;-82
2023/07/06 11:42:43;;;;;;;7.78;2.15;;;;;;;26.37;44.58;100028.13;5070128;28;20475;-81
2023/07/06 11:45:28;;;;;;;5.53;1.95;;;;;;;26.32;45.33;100030.53;5032464;28;20582;-80
2023/07/06 11:48:50;;;;;;;5.60;2.30;;;;;;;26.27;45.87;100030.22;5050092;28;20049;-80
2023/07/06 11:51:19;;;;;;;4.63;2.10;;;;;;;26.27;44.69;100038.31;4990597;28;20512;-80
2023/07/06 11:53:57;;;;;;;5.72;2.35;;;;;;;26.15;42.94;100041.47;5056932;28;20075;-81